CST,Max TemperatureF,Mean TemperatureF,Min TemperatureF,Max Dew PointF,MeanDew PointF,Min DewpointF,Max Humidity, Mean Humidity, Min Humidity, Max Sea Level PressureIn, Mean Sea Level PressureIn, Min Sea Level PressureIn, Max VisibilityMiles, Mean VisibilityMiles, Min VisibilityMiles, Max Wind SpeedMPH, Mean Wind SpeedMPH, Max Gust SpeedMPH,PrecipitationIn, CloudCover, Events, WindDirDegrees
2013-1-1,32,24,17,25,17,7,93,68,55,30.06,30.00,29.95,10,8,1,23,11,31,5.89,5,Rain-Snow,274
2013-1-2,26,22,17,25,17,12,93,79,59,30.26,30.12,30.03,10,7,0,26,18,36,3.88,4,Rain-Snow,297
2013-1-3,37,26,14,16,9,3,86,53,30,30.25,30.15,30.09,10,10,10,16,9,21,0.00,1,,274
2013-1-4,44,34,23,16,9,1,51,40,24,30.09,30.04,29.99,10,10,10,10,6,,0.00,0,,258
2013-1-5,35,30,26,19,16,14,64,54,44,30.19,30.12,30.02,10,10,10,22,13,31,0.00,1,,279
2013-1-6,50,34,17,18,11,1,64,39,20,30.16,29.93,29.80,10,10,10,21,5,28,0.00,0,,260
2013-1-7,41,31,21,23,19,16,80,63,42,29.93,29.85,29.66,10,10,10,15,6,20,0.00,0,,240
2013-1-8,41,34,26,28,23,14,80,61,48,30.06,29.83,29.64,10,10,10,22,10,33,0.00,5,,283
2013-1-9,55,40,26,30,20,10,59,39,17,30.07,29.98,29.73,10,10,10,43,9,56,0.00,0,Thunderstorm,266
2013-1-10,57,42,28,27,16,10,93,32,16,29.73,29.54,29.42,10,10,0,36,18,50,0.00,0,Fog,236
2013-1-11,28,16,3,28,9,-2,100,84,67,29.79,29.60,29.49,10,5,0,30,16,43,3.48,6,Fog-Snow,304
2013-1-12,8,4,1,1,-2,-4,85,75,66,30.05,29.98,29.79,10,6,2,28,16,38,1.38,4,Rain-Snow,289
2013-1-13,14,10,6,5,1,-2,79,68,53,30.07,30.04,30.01,10,9,4,17,9,24,0.12,4,Snow,271
2013-1-14,19,14,10,3,0,-4,67,54,38,30.09,30.03,29.95,10,10,10,20,11,25,0.00,4,,258
2013-1-15,37,24,10,27,18,-4,86,67,45,29.96,29.92,29.88,10,9,2,28,15,37,0.42,7,Rain-Snow,270
2013-1-16,42,40,37,25,20,18,60,47,39,30.23,30.06,29.91,10,10,10,24,19,38,0.00,4,,282
2013-1-17,48,37,26,21,18,14,69,45,27,30.30,30.22,30.03,10,10,10,18,11,25,0.00,0,,264
2013-1-18,50,46,42,16,12,10,34,25,22,29.99,29.91,29.86,10,10,10,21,15,34,0.00,0,Thunderstorm,276
2013-1-19,42,32,21,23,18,16,93,56,34,30.22,30.10,29.91,10,10,10,20,13,29,0.00,1,,291
2013-1-20,23,16,8,19,12,5,93,83,59,30.34,30.23,30.02,10,9,3,17,8,28,0.40,5,Snow,308
2013-1-21,15,12,8,10,8,5,92,85,79,30.28,30.12,30.00,10,9,2,15,7,20,0.45,3,Snow,329
2013-1-22,46,26,6,19,10,3,92,53,23,30.04,30.00,29.96,10,10,10,20,5,28,0.00,0,,277
2013-1-23,26,18,10,14,11,9,93,79,51,30.22,30.13,30.02,10,10,9,12,4,,0.00,0,,47
2013-1-24,53,30,8,21,14,5,93,68,21,30.09,29.96,29.87,10,10,9,14,3,21,0.00,1,,292
2013-1-25,50,36,23,25,19,18,80,53,30,30.08,30.04,29.96,10,10,10,12,7,18,0.00,0,,238
2013-1-26,51,40,30,27,24,19,70,52,33,29.96,29.84,29.74,10,10,10,21,5,25,0.00,0,,240
2013-1-27,41,36,30,32,27,23,100,72,56,29.75,29.69,29.64,10,10,2,16,6,21,0.11,1,Snow,289
2013-1-28,30,27,24,28,26,23,100,92,80,29.80,29.75,29.71,10,7,1,9,5,,2.09,5,Snow,295
2013-1-29,30,16,1,23,12,0,93,74,54,30.01,29.79,29.66,10,8,0,29,9,39,7.13,2,Rain-Snow,287
2013-1-30,21,8,-4,19,8,-8,93,86,68,29.97,29.80,29.71,10,6,0,25,9,32,6.31,3,Snow,302
2013-1-31,26,13,0,19,3,-6,85,75,62,30.14,30.04,29.88,10,8,1,23,15,32,1.37,5,Snow,300